Time;durP1;ratioP1;P1;durP2;ratioP2;P2;SDS_P1;SDS_P2;PMS_P1;PMS_P2;Temp;Humidity;BMP_temperature;BMP_pressure;BME280_temperature;BME280_humidity;BME280_pressure;Samples;Min_cycle;Max_cycle;Signal;HPM_P1;HPM_P2
2023/07/19 00:01:37;;;;;;;5.25;3.78;;;;;;;;;;4977012;28;20049;-86
2023/07/19 00:04:03;;;;;;;8.77;4.00;;;;;;;;;;4976871;28;20022;-86
2023/07/19 00:06:28;;;;;;;9.55;4.47;;;;;;;;;;4964092;28;20033;-88
2023/07/19 00:08:53;;;;;;;5.85;3.70;;;;;;;;;;4980621;28;20023;-87
2023/07/19 00:11:19;;;;;;;6.60;3.80;;;;;;;;;;4978278;28;20033;-87
2023/07/19 00:13:44;;;;;;;7.50;3.67;;;;;;;;;;4979407;28;20130;-88
2023/07/19 00:16:09;;;;;;;5.90;3.92;;;;;;;;;;4963344;28;20034;-87
2023/07/19 00:18:35;;;;;;;6.13;3.90;;;;;;;;;;4992554;28;20018;-87
2023/07/19 00:21:00;;;;;;;6.22;3.90;;;;;;;;;;4972951;28;20031;-87
2023/07/19 00:23:26;;;;;;;5.63;3.80;;;;;;;;;;4976507;28;20482;-87
2023/07/19 00:25:51;;;;;;;7.63;3.95;;;;;;;;;;4976337;28;20034;-86
2023/07/19 00:28:16;;;;;;;8.98;4.03;;;;;;;;;;4976082;28;20031;-86
2023/07/19 00:30:42;;;;;;;8.45;3.88;;;;;;;;;;4963246;28;20079;-86
2023/07/19 00:33:07;;;;;;;5.63;3.88;;;;;;;;;;4975332;28;20039;-87
2023/07/19 00:35:33;;;;;;;5.55;3.88;;;;;;;;;;4995574;28;20442;-87
2023/07/19 00:37:58;;;;;;;7.18;4.10;;;;;;;;;;4983345;28;20035;-85
2023/07/19 00:40:24;;;;;;;8.88;3.92;;;;;;;;;;4972268;28;20031;-85
2023/07/19 00:42:56;;;;;;;7.90;4.18;;;;;;;;;;4973480;28;20034;-86
2023/07/19 00:45:21;;;;;;;11.88;4.05;;;;;;;;;;4971150;28;20109;-85
2023/07/19 00:47:47;;;;;;;9.73;4.85;;;;;;;;;;4971812;28;20120;-85
2023/07/19 00:50:12;;;;;;;11.23;3.88;;;;;;;;;;4952364;28;21228;-85
2023/07/19 00:52:38;;;;;;;8.32;4.28;;;;;;;;;;4953225;28;20087;-85
2023/07/19 00:55:04;;;;;;;6.60;4.13;;;;;;;;;;4973437;28;20035;-85
2023/07/19 00:57:29;;;;;;;5.43;3.33;;;;;;;;;;4954722;28;20022;-85
2023/07/19 00:59:54;;;;;;;10.27;4.10;;;;;;;;;;4950387;28;20034;-86
2023/07/19 01:02:20;;;;;;;9.40;3.88;;;;;;;;;;4975262;28;20382;-85
2023/07/19 01:04:45;;;;;;;7.50;3.55;;;;;;;;;;4954293;28;20027;-85
2023/07/19 01:07:11;;;;;;;6.88;3.38;;;;;;;;;;4984708;28;20023;-87
2023/07/19 01:09:36;;;;;;;9.35;4.50;;;;;;;;;;4981710;28;20023;-85
2023/07/19 01:12:02;;;;;;;5.78;3.42;;;;;;;;;;4957836;28;20429;-85
2023/07/19 01:14:27;;;;;;;6.45;4.15;;;;;;;;;;4959919;28;20058;-88
2023/07/19 01:16:52;;;;;;;6.60;3.83;;;;;;;;;;4951913;28;20035;-86
2023/07/19 01:19:20;;;;;;;5.88;3.78;;;;;;;;;;4976653;28;20106;-86
2023/07/19 01:21:48;;;;;;;6.80;3.92;;;;;;;;;;4958387;28;20226;-87
2023/07/19 01:24:13;;;;;;;6.32;3.85;;;;;;;;;;4952980;28;20247;-86
2023/07/19 01:26:59;;;;;;;8.65;4.10;;;;;;;;;;4958577;28;20488;-87
2023/07/19 01:29:25;;;;;;;5.45;3.70;;;;;;;;;;4957762;28;20030;-88
2023/07/19 01:31:50;;;;;;;6.65;4.00;;;;;;;;;;4974307;28;20018;-88
2023/07/19 01:34:15;;;;;;;6.15;4.15;;;;;;;;;;4958285;28;20054;-88
2023/07/19 01:36:41;;;;;;;5.32;3.85;;;;;;;;;;4960128;28;20474;-88
2023/07/19 01:39:06;;;;;;;6.07;3.20;;;;;;;;;;4957966;28;20496;-87
2023/07/19 01:41:32;;;;;;;7.85;4.10;;;;;;;;;;4974144;28;20019;-88
2023/07/19 01:43:57;;;;;;;6.63;4.50;;;;;;;;;;4952776;28;20385;-87
2023/07/19 01:46:23;;;;;;;6.28;3.95;;;;;;;;;;4982308;28;20158;-88
2023/07/19 01:48:48;;;;;;;9.32;4.68;;;;;;;;;;4972519;28;20046;-87
2023/07/19 01:51:13;;;;;;;7.07;3.90;;;;;;;;;;4983219;28;20047;-88
2023/07/19 01:53:39;;;;;;;12.27;4.15;;;;;;;;;;4951384;28;20034;-88
2023/07/19 01:56:04;;;;;;;11.20;4.30;;;;;;;;;;4963329;28;20400;-86
2023/07/19 01:58:30;;;;;;;7.07;3.55;;;;;;;;;;4972598;28;20069;-87
2023/07/19 02:00:55;;;;;;;8.13;4.13;;;;;;;;;;4978026;28;20081;-87
2023/07/19 02:03:20;;;;;;;9.88;4.53;;;;;;;;;;4970682;28;20015;-87
2023/07/19 02:05:56;;;;;;;8.05;4.28;;;;;;;;;;4980930;28;20029;-87
2023/07/19 02:08:21;;;;;;;9.20;4.18;;;;;;;;;;4972159;28;20097;-87
2023/07/19 02:10:46;;;;;;;11.95;4.47;;;;;;;;;;4949538;28;20047;-87
2023/07/19 02:13:12;;;;;;;10.73;3.90;;;;;;;;;;4982874;28;20081;-87
2023/07/19 02:15:37;;;;;;;9.07;3.65;;;;;;;;;;4977641;28;20034;-87
2023/07/19 02:18:03;;;;;;;13.10;4.25;;;;;;;;;;4977534;28;20048;-87
2023/07/19 02:20:28;;;;;;;13.05;4.43;;;;;;;;;;4965416;28;20504;-86
2023/07/19 02:22:53;;;;;;;8.32;3.83;;;;;;;;;;4954467;28;20038;-87
2023/07/19 02:25:19;;;;;;;13.02;4.68;;;;;;;;;;4974896;28;20030;-87
2023/07/19 02:27:44;;;;;;;16.55;5.13;;;;;;;;;;4957326;28;20022;-87
2023/07/19 02:30:10;;;;;;;18.90;4.90;;;;;;;;;;4957072;28;20519;-87
2023/07/19 02:32:35;;;;;;;15.85;4.75;;;;;;;;;;4977759;28;20040;-87
2023/07/19 02:35:01;;;;;;;12.50;4.38;;;;;;;;;;4982723;28;20390;-87
2023/07/19 02:37:26;;;;;;;11.88;4.00;;;;;;;;;;4952293;28;20497;-86
2023/07/19 02:39:51;;;;;;;11.02;3.70;;;;;;;;;;4957057;28;20038;-87
2023/07/19 02:42:17;;;;;;;9.73;4.40;;;;;;;;;;4962432;28;20130;-87
2023/07/19 02:44:42;;;;;;;6.50;4.32;;;;;;;;;;4955971;28;20133;-87
2023/07/19 02:47:07;;;;;;;5.38;3.53;;;;;;;;;;4955003;28;20030;-87
2023/07/19 02:49:33;;;;;;;10.48;4.47;;;;;;;;;;4970478;28;20442;-87
2023/07/19 02:51:58;;;;;;;8.50;4.53;;;;;;;;;;4974841;28;20105;-86
2023/07/19 02:54:23;;;;;;;8.07;4.22;;;;;;;;;;4954462;28;20126;-87
2023/07/19 02:56:49;;;;;;;5.82;3.97;;;;;;;;;;4955201;28;20023;-87
2023/07/19 02:59:14;;;;;;;7.95;4.00;;;;;;;;;;4973370;28;20440;-88
2023/07/19 03:01:41;;;;;;;6.55;3.35;;;;;;;;;;4952202;28;20043;-88
2023/07/19 03:04:07;;;;;;;8.85;4.18;;;;;;;;;;4958215;28;20492;-88
2023/07/19 03:06:32;;;;;;;8.52;4.03;;;;;;;;;;4958848;28;20035;-88
2023/07/19 03:08:57;;;;;;;11.05;4.15;;;;;;;;;;4975891;28;20034;-87
2023/07/19 03:11:23;;;;;;;8.40;4.38;;;;;;;;;;4976119;28;20101;-88
2023/07/19 03:13:49;;;;;;;7.05;4.05;;;;;;;;;;4976445;28;20117;-88
2023/07/19 03:16:14;;;;;;;7.82;4.63;;;;;;;;;;4971978;28;20034;-87
2023/07/19 03:18:40;;;;;;;9.68;4.43;;;;;;;;;;4963657;28;20031;-87
2023/07/19 03:21:05;;;;;;;7.60;4.05;;;;;;;;;;4976145;28;20031;-87
2023/07/19 03:23:30;;;;;;;7.93;4.15;;;;;;;;;;4971450;28;20516;-87
2023/07/19 03:25:58;;;;;;;7.05;3.80;;;;;;;;;;4966712;28;20018;-87
2023/07/19 03:28:29;;;;;;;8.13;4.43;;;;;;;;;;4966905;28;20034;-87
2023/07/19 03:30:54;;;;;;;11.03;4.57;;;;;;;;;;4959955;28;20085;-88
2023/07/19 03:33:21;;;;;;;7.35;3.67;;;;;;;;;;4958937;28;20026;-87
2023/07/19 03:35:47;;;;;;;8.60;4.70;;;;;;;;;;4977892;28;20027;-88
2023/07/19 03:38:12;;;;;;;16.35;4.82;;;;;;;;;;4962387;28;20034;-88
2023/07/19 03:40:37;;;;;;;10.32;4.68;;;;;;;;;;4977986;28;20026;-87
2023/07/19 03:43:03;;;;;;;11.23;5.35;;;;;;;;;;4963022;28;20031;-87
2023/07/19 03:45:28;;;;;;;8.40;5.25;;;;;;;;;;4956563;28;20030;-87
2023/07/19 03:47:54;;;;;;;13.23;5.18;;;;;;;;;;4953491;28;20038;-88
2023/07/19 03:50:19;;;;;;;8.23;5.05;;;;;;;;;;4953738;28;20023;-87
2023/07/19 03:52:44;;;;;;;11.10;5.70;;;;;;;;;;4969259;28;20026;-87
2023/07/19 03:55:10;;;;;;;8.55;5.18;;;;;;;;;;4971929;28;20669;-87
2023/07/19 03:57:35;;;;;;;12.02;5.25;;;;;;;;;;4962854;28;20019;-87
2023/07/19 04:00:01;;;;;;;9.85;3.78;;;;;;;;;;4958760;28;20470;-87
2023/07/19 04:02:26;;;;;;;7.95;4.40;;;;;;;;;;4967062;28;20030;-87
2023/07/19 04:04:52;;;;;;;11.15;4.35;;;;;;;;;;4959510;28;20030;-87
2023/07/19 04:07:17;;;;;;;13.30;5.22;;;;;;;;;;4959887;28;20025;-87
2023/07/19 04:09:44;;;;;;;9.30;4.20;;;;;;;;;;4946039;28;20102;-87
2023/07/19 04:12:09;;;;;;;8.23;4.30;;;;;;;;;;4962453;28;20041;-87
2023/07/19 04:14:34;;;;;;;12.75;4.40;;;;;;;;;;4960994;28;20478;-87
2023/07/19 04:17:00;;;;;;;7.53;3.90;;;;;;;;;;4969792;28;20023;-87
2023/07/19 04:19:25;;;;;;;7.50;3.95;;;;;;;;;;4962897;28;20039;-87
2023/07/19 04:21:51;;;;;;;10.68;4.88;;;;;;;;;;4964453;28;20015;-87
2023/07/19 04:24:16;;;;;;;10.75;4.13;;;;;;;;;;4957291;28;20516;-87
2023/07/19 04:26:41;;;;;;;6.57;4.45;;;;;;;;;;4977937;28;20465;-88
2023/07/19 04:29:07;;;;;;;5.22;4.13;;;;;;;;;;4956227;28;20409;-88
2023/07/19 04:31:32;;;;;;;7.60;4.57;;;;;;;;;;4960500;28;20086;-87
2023/07/19 04:33:57;;;;;;;6.40;4.38;;;;;;;;;;4977657;28;20113;-88
2023/07/19 04:36:23;;;;;;;9.93;4.55;;;;;;;;;;4959979;28;20109;-88
2023/07/19 04:38:48;;;;;;;10.80;4.55;;;;;;;;;;4959619;28;20019;-87
2023/07/19 04:41:13;;;;;;;8.65;4.65;;;;;;;;;;4969123;28;20025;-87
2023/07/19 04:43:39;;;;;;;6.38;4.22;;;;;;;;;;4962337;28;20485;-87
2023/07/19 04:46:04;;;;;;;10.38;4.13;;;;;;;;;;4962250;28;20034;-88
2023/07/19 04:48:30;;;;;;;6.57;4.45;;;;;;;;;;4982175;28;20091;-87
2023/07/19 04:50:56;;;;;;;5.53;3.92;;;;;;;;;;4988003;28;20127;-87
2023/07/19 04:53:22;;;;;;;7.82;4.43;;;;;;;;;;4984565;28;20010;-87
2023/07/19 04:55:52;;;;;;;6.43;4.05;;;;;;;;;;4978864;28;20038;-87
2023/07/19 04:58:18;;;;;;;7.43;4.55;;;;;;;;;;4973404;28;20425;-87
2023/07/19 05:00:44;;;;;;;9.13;4.32;;;;;;;;;;4982559;28;21633;-87
2023/07/19 05:03:10;;;;;;;7.95;3.90;;;;;;;;;;4955479;28;20062;-87
2023/07/19 05:05:36;;;;;;;8.57;4.60;;;;;;;;;;4973261;28;20030;-87
2023/07/19 05:08:04;;;;;;;10.38;3.90;;;;;;;;;;4975770;28;20030;-87
2023/07/19 05:10:30;;;;;;;8.57;3.85;;;;;;;;;;4974618;28;20023;-87
2023/07/19 05:12:55;;;;;;;5.55;3.85;;;;;;;;;;4972505;28;20090;-86
2023/07/19 05:15:20;;;;;;;12.60;4.00;;;;;;;;;;4970662;28;20039;-87
2023/07/19 05:17:45;;;;;;;5.40;3.60;;;;;;;;;;4996024;28;20029;-87
2023/07/19 05:20:12;;;;;;;5.30;3.22;;;;;;;;;;4984565;28;20060;-86
2023/07/19 05:22:38;;;;;;;10.07;3.47;;;;;;;;;;4962370;28;20039;-86
2023/07/19 05:25:04;;;;;;;6.13;3.45;;;;;;;;;;4979435;28;20027;-87
2023/07/19 05:27:29;;;;;;;5.88;3.33;;;;;;;;;;4961110;28;20039;-85
2023/07/19 05:29:54;;;;;;;7.88;3.70;;;;;;;;;;4978263;28;20050;-87
2023/07/19 05:32:20;;;;;;;4.50;3.25;;;;;;;;;;4975103;28;20541;-86
2023/07/19 05:34:46;;;;;;;6.78;3.95;;;;;;;;;;4977143;28;20245;-86
2023/07/19 05:37:11;;;;;;;7.18;3.88;;;;;;;;;;4958185;29;20027;-87
2023/07/19 05:39:37;;;;;;;8.32;3.45;;;;;;;;;;4960463;28;20034;-85
2023/07/19 05:42:02;;;;;;;4.97;3.10;;;;;;;;;;4984725;28;20069;-85
2023/07/19 05:44:28;;;;;;;10.52;3.25;;;;;;;;;;4962672;28;20034;-86
2023/07/19 05:46:53;;;;;;;6.70;3.42;;;;;;;;;;4946460;28;20473;-86
2023/07/19 05:49:19;;;;;;;6.05;3.15;;;;;;;;;;4985543;28;20449;-85
2023/07/19 05:51:44;;;;;;;6.25;3.20;;;;;;;;;;4960216;28;20023;-86
2023/07/19 05:54:10;;;;;;;5.97;3.42;;;;;;;;;;4960187;28;20026;-85
2023/07/19 05:56:36;;;;;;;5.53;3.10;;;;;;;;;;4977799;28;20142;-85
2023/07/19 05:59:01;;;;;;;8.70;3.40;;;;;;;;;;4959896;28;20109;-85
2023/07/19 06:01:27;;;;;;;7.82;3.70;;;;;;;;;;4962502;28;20018;-85
2023/07/19 06:03:52;;;;;;;7.30;3.78;;;;;;;;;;4981907;28;20026;-85
2023/07/19 06:06:18;;;;;;;8.63;3.00;;;;;;;;;;4982203;28;20472;-85
2023/07/19 06:08:43;;;;;;;6.13;3.20;;;;;;;;;;4967770;28;20041;-85
2023/07/19 06:11:08;;;;;;;9.25;3.40;;;;;;;;;;4979654;28;20015;-85
2023/07/19 06:13:34;;;;;;;5.03;3.33;;;;;;;;;;4968471;28;20034;-85
2023/07/19 06:15:59;;;;;;;7.93;3.53;;;;;;;;;;4965968;28;20031;-86
2023/07/19 06:18:24;;;;;;;7.45;3.25;;;;;;;;;;4987075;28;20037;-85
2023/07/19 06:20:50;;;;;;;6.65;3.80;;;;;;;;;;4994066;28;20054;-86
2023/07/19 06:24:05;;;;;;;7.10;3.20;;;;;;;;;;4974190;28;20034;-85
2023/07/19 06:26:30;;;;;;;12.75;3.60;;;;;;;;;;4968318;28;20023;-85
2023/07/19 06:28:56;;;;;;;5.05;2.67;;;;;;;;;;4990226;28;20054;-86
2023/07/19 06:31:21;;;;;;;9.25;3.42;;;;;;;;;;4990505;28;20027;-86
2023/07/19 06:33:46;;;;;;;5.93;3.30;;;;;;;;;;4972128;28;20038;-86
2023/07/19 06:36:13;;;;;;;7.55;2.80;;;;;;;;;;4980633;28;20031;-85
2023/07/19 06:38:38;;;;;;;4.82;2.92;;;;;;;;;;4984427;28;20539;-85
2023/07/19 06:41:04;;;;;;;6.97;3.40;;;;;;;;;;4970350;28;20034;-86
2023/07/19 06:43:30;;;;;;;8.48;3.13;;;;;;;;;;4963159;28;20106;-87
2023/07/19 06:45:55;;;;;;;9.20;3.45;;;;;;;;;;4967104;29;20031;-85
2023/07/19 06:48:21;;;;;;;8.23;2.55;;;;;;;;;;4979333;28;20051;-85
2023/07/19 06:50:47;;;;;;;5.38;2.60;;;;;;;;;;4957734;28;20118;-85
2023/07/19 06:53:12;;;;;;;11.70;2.90;;;;;;;;;;4972688;28;20078;-86
2023/07/19 06:55:39;;;;;;;4.75;2.53;;;;;;;;;;4967366;28;20026;-86
2023/07/19 06:58:04;;;;;;;7.03;2.85;;;;;;;;;;4960176;28;20149;-86
2023/07/19 07:00:30;;;;;;;7.35;2.67;;;;;;;;;;4959679;28;20019;-86
2023/07/19 07:02:55;;;;;;;3.90;2.65;;;;;;;;;;4978562;28;20026;-86
2023/07/19 07:05:20;;;;;;;4.78;2.72;;;;;;;;;;4978385;28;20430;-85
2023/07/19 07:07:46;;;;;;;6.28;3.08;;;;;;;;;;4961951;28;20252;-86
2023/07/19 07:10:12;;;;;;;6.25;3.05;;;;;;;;;;4960285;28;20073;-85
2023/07/19 07:12:37;;;;;;;3.25;2.20;;;;;;;;;;4960391;28;20074;-86
2023/07/19 07:15:03;;;;;;;8.10;2.28;;;;;;;;;;4978887;28;20417;-86
2023/07/19 07:17:29;;;;;;;3.70;2.30;;;;;;;;;;4994749;28;20113;-86
2023/07/19 07:19:54;;;;;;;5.10;2.10;;;;;;;;;;4996947;28;20077;-85
2023/07/19 07:22:20;;;;;;;4.80;2.28;;;;;;;;;;4988551;28;20027;-85
2023/07/19 07:24:45;;;;;;;3.03;2.13;;;;;;;;;;4958484;28;20027;-86
2023/07/19 07:27:11;;;;;;;3.50;1.90;;;;;;;;;;4966432;28;20031;-85
2023/07/19 07:29:36;;;;;;;2.35;1.60;;;;;;;;;;4972969;28;20042;-85
2023/07/19 07:32:02;;;;;;;2.03;1.80;;;;;;;;;;4949232;28;20023;-86
2023/07/19 07:34:27;;;;;;;6.43;1.80;;;;;;;;;;4959068;29;20019;-86
2023/07/19 07:36:53;;;;;;;3.30;2.22;;;;;;;;;;4976291;28;20022;-85
2023/07/19 07:39:19;;;;;;;2.55;2.00;;;;;;;;;;4963355;28;20063;-86
2023/07/19 07:41:45;;;;;;;2.95;1.80;;;;;;;;;;4979321;28;20023;-87
2023/07/19 07:44:10;;;;;;;2.60;1.83;;;;;;;;;;4962628;28;20027;-85
2023/07/19 07:46:36;;;;;;;5.60;2.13;;;;;;;;;;4977122;28;20033;-85
2023/07/19 07:49:01;;;;;;;3.10;1.52;;;;;;;;;;4978648;28;20027;-86
2023/07/19 07:51:29;;;;;;;4.38;1.98;;;;;;;;;;4955905;28;20460;-85
2023/07/19 07:53:55;;;;;;;3.28;1.63;;;;;;;;;;4977257;28;20034;-85
2023/07/19 07:56:22;;;;;;;3.78;1.90;;;;;;;;;;4959923;28;20027;-85
2023/07/19 07:58:47;;;;;;;5.03;2.08;;;;;;;;;;4959402;28;20034;-87
2023/07/19 08:01:13;;;;;;;2.90;2.00;;;;;;;;;;4978336;28;20101;-86
2023/07/19 08:03:38;;;;;;;2.50;1.60;;;;;;;;;;4959507;28;20058;-85
2023/07/19 08:06:04;;;;;;;3.45;1.60;;;;;;;;;;4978983;28;20058;-87
2023/07/19 08:08:30;;;;;;;7.95;1.30;;;;;;;;;;4978064;28;20159;-86
2023/07/19 08:10:56;;;;;;;3.50;1.73;;;;;;;;;;4958201;28;20015;-86
2023/07/19 08:13:21;;;;;;;3.75;1.80;;;;;;;;;;4974228;28;20023;-87
2023/07/19 08:15:48;;;;;;;3.70;1.90;;;;;;;;;;4960262;28;20111;-86
2023/07/19 08:18:17;;;;;;;3.55;1.50;;;;;;;;;;4964555;28;20135;-86
2023/07/19 08:20:42;;;;;;;2.28;1.63;;;;;;;;;;4962260;28;20396;-85
2023/07/19 08:23:08;;;;;;;2.97;1.70;;;;;;;;;;4961820;28;20269;-86
2023/07/19 08:25:34;;;;;;;1.90;1.13;;;;;;;;;;4980610;28;20037;-86
2023/07/19 08:28:00;;;;;;;2.58;1.60;;;;;;;;;;4961053;28;20035;-86
2023/07/19 08:30:25;;;;;;;4.55;1.48;;;;;;;;;;4978327;28;20524;-85
2023/07/19 08:32:51;;;;;;;3.95;1.67;;;;;;;;;;4963986;28;20275;-85
2023/07/19 08:35:17;;;;;;;2.53;1.75;;;;;;;;;;4976333;28;20038;-86
2023/07/19 08:37:45;;;;;;;5.35;1.60;;;;;;;;;;4956711;28;20027;-86
2023/07/19 08:40:15;;;;;;;4.20;1.90;;;;;;;;;;4964225;28;20030;-86
2023/07/19 08:42:41;;;;;;;2.13;1.35;;;;;;;;;;4967263;28;20050;-86
2023/07/19 08:45:08;;;;;;;3.22;1.35;;;;;;;;;;4970174;28;20037;-87
2023/07/19 08:47:44;;;;;;;2.65;1.50;;;;;;;;;;4967219;28;20029;-86
2023/07/19 08:50:11;;;;;;;2.45;1.45;;;;;;;;;;4984438;28;20567;-85
2023/07/19 08:52:36;;;;;;;2.58;1.85;;;;;;;;;;4963073;28;20033;-85
2023/07/19 08:55:02;;;;;;;3.00;1.30;;;;;;;;;;4966060;28;20046;-85
2023/07/19 08:57:28;;;;;;;3.08;1.48;;;;;;;;;;4984301;28;20031;-85
2023/07/19 08:59:54;;;;;;;1.52;1.40;;;;;;;;;;4963414;28;20035;-85
2023/07/19 09:02:19;;;;;;;2.70;1.40;;;;;;;;;;4965168;28;20034;-85
2023/07/19 09:05:04;;;;;;;4.15;1.63;;;;;;;;;;4984180;28;20050;-86
2023/07/19 09:07:30;;;;;;;4.78;1.70;;;;;;;;;;4970691;28;20061;-87
2023/07/19 09:09:55;;;;;;;3.47;1.30;;;;;;;;;;4973137;28;20026;-86
2023/07/19 09:12:21;;;;;;;3.58;1.77;;;;;;;;;;4993296;28;20011;-85
2023/07/19 09:14:46;;;;;;;2.50;1.55;;;;;;;;;;4977199;28;20034;-84
2023/07/19 09:17:11;;;;;;;10.60;1.70;;;;;;;;;;4974055;28;20030;-85
2023/07/19 09:19:41;;;;;;;1.75;1.40;;;;;;;;;;4967698;28;20081;-85
2023/07/19 09:22:06;;;;;;;5.88;1.73;;;;;;;;;;4969393;28;20033;-86
2023/07/19 09:24:32;;;;;;;7.10;1.90;;;;;;;;;;4971543;28;20031;-86
2023/07/19 09:26:57;;;;;;;3.58;1.45;;;;;;;;;;4971397;28;20019;-86
2023/07/19 09:29:29;;;;;;;2.10;1.35;;;;;;;;;;4969038;28;20207;-85
2023/07/19 09:31:54;;;;;;;;;;;;;;;;;;4973356;28;20018;-85
2023/07/19 09:34:27;;;;;;;2.78;1.48;;;;;;;;;;4969913;28;19914;-84
2023/07/19 09:36:53;;;;;;;1.92;1.52;;;;;;;;;;4975727;28;20043;-84
2023/07/19 09:39:20;;;;;;;4.05;1.58;;;;;;;;;;4983705;28;20027;-84
2023/07/19 09:41:46;;;;;;;2.35;1.60;;;;;;;;;;4982094;28;21198;-85
2023/07/19 09:44:15;;;;;;;3.63;1.42;;;;;;;;;;4965632;28;20049;-85
2023/07/19 09:46:41;;;;;;;2.92;1.85;;;;;;;;;;4964232;28;20073;-85
2023/07/19 09:49:07;;;;;;;3.08;1.42;;;;;;;;;;4964576;28;20037;-84
2023/07/19 09:51:34;;;;;;;1.83;1.48;;;;;;;;;;4979289;28;20023;-85
2023/07/19 09:54:00;;;;;;;3.30;1.70;;;;;;;;;;4981707;28;20049;-84
2023/07/19 09:56:26;;;;;;;2.67;1.30;;;;;;;;;;4963819;28;20065;-84
2023/07/19 09:58:54;;;;;;;2.40;1.45;;;;;;;;;;4969185;28;20026;-84
2023/07/19 10:01:20;;;;;;;3.83;1.50;;;;;;;;;;4979679;28;20022;-85
2023/07/19 10:03:46;;;;;;;2.58;1.70;;;;;;;;;;4987613;28;20126;-85
2023/07/19 10:06:14;;;;;;;2.38;1.35;;;;;;;;;;4984926;28;20063;-86
2023/07/19 10:08:39;;;;;;;1.55;1.33;;;;;;;;;;4984442;28;20077;-85
2023/07/19 10:11:20;;;;;;;1.45;1.30;;;;;;;;;;4968534;28;20018;-86
2023/07/19 10:13:59;;;;;;;1.90;1.20;;;;;;;;;;4971801;28;20031;-84
2023/07/19 10:16:33;;;;;;;4.20;1.60;;;;;;;;;;4964827;29;20035;-84
2023/07/19 10:19:20;;;;;;;1.60;1.30;;;;;;;;;;4954470;28;20059;-84
2023/07/19 10:22:04;;;;;;;3.75;1.42;;;;;;;;;;4960885;28;20094;-85
2023/07/19 10:24:37;;;;;;;1.55;1.45;;;;;;;;;;4965079;28;20123;-84
2023/07/19 10:27:07;;;;;;;2.17;1.50;;;;;;;;;;4967214;28;20473;-85
2023/07/19 10:29:42;;;;;;;2.88;1.38;;;;;;;;;;4973427;28;20025;-85
2023/07/19 10:32:08;;;;;;;3.35;1.42;;;;;;;;;;4964279;28;20086;-86
2023/07/19 10:34:34;;;;;;;2.67;1.15;;;;;;;;;;4962100;28;20061;-85
2023/07/19 10:37:04;;;;;;;2.13;1.38;;;;;;;;;;4993642;28;20432;-85
2023/07/19 10:39:31;;;;;;;3.65;1.30;;;;;;;;;;4970274;28;20043;-85
2023/07/19 10:41:57;;;;;;;3.50;1.27;;;;;;;;;;4993839;28;20018;-83
2023/07/19 10:44:24;;;;;;;3.15;1.75;;;;;;;;;;4966062;28;20023;-84
2023/07/19 10:46:49;;;;;;;3.50;1.50;;;;;;;;;;4973367;28;20023;-84
2023/07/19 10:49:15;;;;;;;2.40;1.27;;;;;;;;;;4978383;28;20049;-84
2023/07/19 10:51:54;;;;;;;4.60;1.60;;;;;;;;;;4955956;28;20024;-85
2023/07/19 10:57:41;;;;;;;6.68;1.30;;;;;;;;;;4989821;28;20046;-85
2023/07/19 11:00:13;;;;;;;5.22;1.50;;;;;;;;;;4980953;28;20190;-84
2023/07/19 11:02:42;;;;;;;7.82;1.60;;;;;;;;;;4974963;28;20086;-85
2023/07/19 11:05:09;;;;;;;4.55;1.50;;;;;;;;;;4972094;28;20045;-84
2023/07/19 11:07:35;;;;;;;3.92;1.40;;;;;;;;;;4979828;28;20031;-84
2023/07/19 11:10:01;;;;;;;1.88;1.42;;;;;;;;;;4974982;28;20058;-84
2023/07/19 11:12:27;;;;;;;3.70;1.58;;;;;;;;;;4989135;28;20037;-86
2023/07/19 11:14:58;;;;;;;11.45;1.85;;;;;;;;;;4987602;28;20070;-85
2023/07/19 11:17:25;;;;;;;4.22;1.92;;;;;;;;;;4994243;28;20023;-86
2023/07/19 11:19:51;;;;;;;5.35;1.77;;;;;;;;;;4975669;28;20082;-86
2023/07/19 11:22:21;;;;;;;3.55;1.58;;;;;;;;;;4973249;28;20041;-87
2023/07/19 11:24:49;;;;;;;3.35;1.98;;;;;;;;;;4968862;28;20050;-86
2023/07/19 11:27:16;;;;;;;8.45;1.80;;;;;;;;;;4971012;28;20098;-86
2023/07/19 11:29:42;;;;;;;5.22;1.70;;;;;;;;;;4979217;28;20030;-85
2023/07/19 11:32:23;;;;;;;3.10;1.70;;;;;;;;;;4965574;29;20027;-86
2023/07/19 11:38:20;;;;;;;4.97;1.75;;;;;;;;;;5010447;28;20050;-85
2023/07/19 11:40:45;;;;;;;;;;;;;;;;;;4981610;28;20026;-85
2023/07/19 11:43:23;;;;;;;4.45;1.60;;;;;;;;;;4990817;28;19910;-85
2023/07/19 11:45:48;;;;;;;8.13;1.80;;;;;;;;;;4980839;28;20061;-86
2023/07/19 11:48:14;;;;;;;7.75;2.00;;;;;;;;;;4996386;28;20035;-85
2023/07/19 11:50:40;;;;;;;2.78;1.70;;;;;;;;;;5004271;28;20053;-85
2023/07/19 11:53:07;;;;;;;4.07;1.65;;;;;;;;;;4996062;28;20039;-86
2023/07/19 11:55:33;;;;;;;2.50;1.80;;;;;;;;;;4975991;29;20015;-85
2023/07/19 11:58:02;;;;;;;3.78;1.55;;;;;;;;;;4987564;28;20035;-85
2023/07/19 12:00:29;;;;;;;3.22;1.80;;;;;;;;;;4996525;28;20112;-85
2023/07/19 12:02:55;;;;;;;3.28;1.52;;;;;;;;;;4996006;28;20022;-86
2023/07/19 12:05:23;;;;;;;7.95;1.92;;;;;;;;;;5004081;28;20041;-88
2023/07/19 12:07:50;;;;;;;4.40;1.60;;;;;;;;;;4973231;28;20027;-84
2023/07/19 12:10:17;;;;;;;7.28;1.90;;;;;;;;;;4981551;28;20027;-86
2023/07/19 12:12:44;;;;;;;3.10;2.20;;;;;;;;;;4976003;28;20034;-87
2023/07/19 12:15:11;;;;;;;5.25;1.98;;;;;;;;;;4989369;28;20027;-87
2023/07/19 12:17:36;;;;;;;3.28;1.63;;;;;;;;;;4989642;28;20057;-87
2023/07/19 12:20:06;;;;;;;1.98;1.52;;;;;;;;;;4966849;28;20026;-87
2023/07/19 12:22:33;;;;;;;6.53;2.00;;;;;;;;;;4974730;28;20058;-87
2023/07/19 12:24:58;;;;;;;3.78;1.83;;;;;;;;;;4963477;28;20019;-86
2023/07/19 12:27:26;;;;;;;5.43;1.73;;;;;;;;;;4973155;28;20035;-87
2023/07/19 12:29:51;;;;;;;2.85;2.00;;;;;;;;;;4988744;28;20041;-87
2023/07/19 12:32:17;;;;;;;6.35;1.60;;;;;;;;;;4965592;28;20023;-86
2023/07/19 12:34:46;;;;;;;4.93;2.08;;;;;;;;;;4994367;28;20026;-87
2023/07/19 12:37:12;;;;;;;2.80;1.70;;;;;;;;;;4982189;28;20525;-86
2023/07/19 12:39:40;;;;;;;3.92;1.67;;;;;;;;;;4991167;28;20038;-86
2023/07/19 12:42:08;;;;;;;3.78;2.40;;;;;;;;;;4967441;29;20027;-86
2023/07/19 12:44:35;;;;;;;2.60;1.75;;;;;;;;;;4976193;28;20027;-86
2023/07/19 12:47:01;;;;;;;2.15;1.85;;;;;;;;;;4970304;28;20026;-86
2023/07/19 12:49:26;;;;;;;4.75;1.92;;;;;;;;;;4995766;28;20125;-87
2023/07/19 12:51:52;;;;;;;3.17;1.77;;;;;;;;;;4981849;28;20026;-87
2023/07/19 12:54:18;;;;;;;5.07;1.80;;;;;;;;;;5007896;28;20034;-87
2023/07/19 12:56:43;;;;;;;4.85;2.00;;;;;;;;;;4997591;28;20050;-87
2023/07/19 12:59:12;;;;;;;5.35;2.00;;;;;;;;;;4982203;28;20055;-87
2023/07/19 13:01:37;;;;;;;4.20;1.88;;;;;;;;;;4972332;28;20054;-86
2023/07/19 13:04:07;;;;;;;4.60;1.95;;;;;;;;;;4982880;28;20051;-87
2023/07/19 13:06:33;;;;;;;4.47;1.90;;;;;;;;;;4991968;28;20046;-87
2023/07/19 13:08:59;;;;;;;4.43;2.00;;;;;;;;;;4985484;28;20030;-86
2023/07/19 13:11:25;;;;;;;3.55;1.80;;;;;;;;;;4967425;29;20019;-86
2023/07/19 13:13:51;;;;;;;1.77;1.58;;;;;;;;;;4984533;28;20512;-86
2023/07/19 13:16:17;;;;;;;2.40;1.85;;;;;;;;;;4999123;28;20030;-86
2023/07/19 13:18:44;;;;;;;4.55;2.03;;;;;;;;;;4970361;28;20027;-87
2023/07/19 13:21:10;;;;;;;2.47;1.90;;;;;;;;;;4978188;28;20110;-86
2023/07/19 13:23:35;;;;;;;4.57;2.00;;;;;;;;;;4970388;28;20098;-87
2023/07/19 13:26:01;;;;;;;3.25;2.10;;;;;;;;;;4983542;28;20393;-87
2023/07/19 13:28:26;;;;;;;3.92;2.10;;;;;;;;;;5010317;28;20030;-87
2023/07/19 13:30:52;;;;;;;9.18;2.20;;;;;;;;;;5007877;28;20034;-87
2023/07/19 13:33:17;;;;;;;7.00;2.30;;;;;;;;;;4978822;28;20045;-87
2023/07/19 13:35:42;;;;;;;8.85;2.15;;;;;;;;;;5004876;28;20034;-86
2023/07/19 13:38:08;;;;;;;4.20;2.03;;;;;;;;;;4980973;28;20113;-87
2023/07/19 13:40:34;;;;;;;2.97;1.85;;;;;;;;;;4991958;28;20050;-86
2023/07/19 13:42:59;;;;;;;5.60;2.17;;;;;;;;;;4976741;28;20383;-85
2023/07/19 13:45:25;;;;;;;4.93;2.10;;;;;;;;;;4975724;28;20010;-86
2023/07/19 13:47:50;;;;;;;5.20;2.13;;;;;;;;;;4990336;28;20031;-86
2023/07/19 13:50:16;;;;;;;3.28;2.30;;;;;;;;;;4999178;28;20018;-85
2023/07/19 13:52:41;;;;;;;5.78;2.03;;;;;;;;;;4973816;28;20022;-86
2023/07/19 13:55:07;;;;;;;4.20;2.10;;;;;;;;;;4994132;28;20029;-86
2023/07/19 13:57:33;;;;;;;4.82;2.30;;;;;;;;;;4977098;28;20022;-84
2023/07/19 13:59:58;;;;;;;3.15;2.20;;;;;;;;;;4981918;28;20022;-87
2023/07/19 14:02:24;;;;;;;4.13;2.38;;;;;;;;;;4981789;28;20026;-87
2023/07/19 14:04:49;;;;;;;4.13;2.30;;;;;;;;;;4977281;28;20031;-88
2023/07/19 14:07:15;;;;;;;5.15;2.90;;;;;;;;;;4975503;28;20029;-86
2023/07/19 14:09:41;;;;;;;3.30;2.28;;;;;;;;;;5002638;28;20030;-85
2023/07/19 14:12:07;;;;;;;3.30;2.30;;;;;;;;;;4961314;28;20019;-84
2023/07/19 14:14:33;;;;;;;3.42;2.00;;;;;;;;;;4979024;28;20057;-88
2023/07/19 14:16:58;;;;;;;2.83;1.98;;;;;;;;;;4963255;28;20022;-85
2023/07/19 14:19:23;;;;;;;4.55;2.50;;;;;;;;;;4984720;28;20027;-84
2023/07/19 14:21:49;;;;;;;13.68;2.28;;;;;;;;;;4970325;28;20031;-84
2023/07/19 14:24:14;;;;;;;2.50;1.98;;;;;;;;;;4960025;28;20039;-84
2023/07/19 14:26:39;;;;;;;5.47;2.50;;;;;;;;;;4979002;28;20027;-82
2023/07/19 14:29:05;;;;;;;9.60;2.15;;;;;;;;;;4959924;28;20409;-84
2023/07/19 14:31:31;;;;;;;2.58;2.13;;;;;;;;;;4979492;28;20019;-84
2023/07/19 14:33:56;;;;;;;4.68;2.00;;;;;;;;;;4965836;28;20026;-83
2023/07/19 14:36:22;;;;;;;5.70;1.98;;;;;;;;;;4966887;28;20023;-85
2023/07/19 14:38:47;;;;;;;2.22;1.90;;;;;;;;;;4961580;28;20399;-86
2023/07/19 14:41:13;;;;;;;6.30;1.90;;;;;;;;;;4982611;28;20037;-85
2023/07/19 14:43:39;;;;;;;8.05;2.03;;;;;;;;;;4956829;28;20050;-85
2023/07/19 14:46:04;;;;;;;4.03;1.85;;;;;;;;;;4982980;28;20441;-85